sensor_id;sensor_type;location;lat;lon;timestamp;P1;P2;P0
55549;PMS7003;41397;49.972;18.944;2023-03-15T00:01:56;0;0;0
55549;PMS7003;41397;49.972;18.944;2023-03-15T00:04:58;0;0;0
55549;PMS7003;41397;49.972;18.944;2023-03-15T00:08:00;1;1;1
55549;PMS7003;41397;49.972;18.944;2023-03-15T00:11:01;3;3;2
55549;PMS7003;41397;49.972;18.944;2023-03-15T00:14:04;0;0;0
55549;PMS7003;41397;49.972;18.944;2023-03-15T00:17:05;0;0;0
55549;PMS7003;41397;49.972;18.944;2023-03-15T00:20:07;2;2;2
55549;PMS7003;41397;49.972;18.944;2023-03-15T00:23:11;2;2;2
55549;PMS7003;41397;49.972;18.944;2023-03-15T00:26:13;4;4;2
55549;PMS7003;41397;49.972;18.944;2023-03-15T00:29:16;3;3;2
55549;PMS7003;41397;49.972;18.944;2023-03-15T00:32:18;3;3;2
55549;PMS7003;41397;49.972;18.944;2023-03-15T00:35:20;2;2;2
55549;PMS7003;41397;49.972;18.944;2023-03-15T00:38:23;3;3;1
55549;PMS7003;41397;49.972;18.944;2023-03-15T00:41:25;3;3;2
55549;PMS7003;41397;49.972;18.944;2023-03-15T00:44:26;4;4;1
55549;PMS7003;41397;49.972;18.944;2023-03-15T00:47:28;3;3;2
55549;PMS7003;41397;49.972;18.944;2023-03-15T00:50:30;4;4;3
55549;PMS7003;41397;49.972;18.944;2023-03-15T00:53:32;6;6;5
55549;PMS7003;41397;49.972;18.944;2023-03-15T00:56:35;4;4;2
55549;PMS7003;41397;49.972;18.944;2023-03-15T00:59:36;4;4;3
55549;PMS7003;41397;49.972;18.944;2023-03-15T01:02:37;4;4;4
55549;PMS7003;41397;49.972;18.944;2023-03-15T01:05:40;5;5;3
55549;PMS7003;41397;49.972;18.944;2023-03-15T01:08:41;4;4;3
55549;PMS7003;41397;49.972;18.944;2023-03-15T01:11:43;3;3;1
55549;PMS7003;41397;49.972;18.944;2023-03-15T01:14:45;3;3;2
55549;PMS7003;41397;49.972;18.944;2023-03-15T01:17:46;2;2;1
55549;PMS7003;41397;49.972;18.944;2023-03-15T01:20:48;1;1;0
55549;PMS7003;41397;49.972;18.944;2023-03-15T01:23:49;3;3;3
55549;PMS7003;41397;49.972;18.944;2023-03-15T01:26:51;1;1;1
55549;PMS7003;41397;49.972;18.944;2023-03-15T01:29:53;0;0;0
55549;PMS7003;41397;49.972;18.944;2023-03-15T01:32:55;3;3;3
55549;PMS7003;41397;49.972;18.944;2023-03-15T01:35:57;4;4;3
55549;PMS7003;41397;49.972;18.944;2023-03-15T01:39:05;3;3;2
55549;PMS7003;41397;49.972;18.944;2023-03-15T01:42:07;1;1;1
55549;PMS7003;41397;49.972;18.944;2023-03-15T01:48:22;4;4;4
55549;PMS7003;41397;49.972;18.944;2023-03-15T01:54:40;5;5;4
55549;PMS7003;41397;49.972;18.944;2023-03-15T01:57:48;3;3;3
55549;PMS7003;41397;49.972;18.944;2023-03-15T02:00:55;5;5;3
55549;PMS7003;41397;49.972;18.944;2023-03-15T02:04:00;4;4;3
55549;PMS7003;41397;49.972;18.944;2023-03-15T02:07:07;2;2;1
55549;PMS7003;41397;49.972;18.944;2023-03-15T02:10:11;2;2;2
55549;PMS7003;41397;49.972;18.944;2023-03-15T02:13:16;3;3;2
55549;PMS7003;41397;49.972;18.944;2023-03-15T02:16:22;4;2;2
55549;PMS7003;41397;49.972;18.944;2023-03-15T02:22:46;3;3;2
55549;PMS7003;41397;49.972;18.944;2023-03-15T02:29:11;4;4;3
55549;PMS7003;41397;49.972;18.944;2023-03-15T02:32:13;1;1;1
55549;PMS7003;41397;49.972;18.944;2023-03-15T02:38:23;1;1;1
55549;PMS7003;41397;49.972;18.944;2023-03-15T02:44:37;3;3;2
55549;PMS7003;41397;49.972;18.944;2023-03-15T02:47:41;1;1;1
55549;PMS7003;41397;49.972;18.944;2023-03-15T02:50:44;0;0;0
55549;PMS7003;41397;49.972;18.944;2023-03-15T02:53:45;8;8;4
55549;PMS7003;41397;49.972;18.944;2023-03-15T02:56:47;2;2;2
55549;PMS7003;41397;49.972;18.944;2023-03-15T02:59:49;1;1;0
55549;PMS7003;41397;49.972;18.944;2023-03-15T03:02:51;1;1;1
55549;PMS7003;41397;49.972;18.944;2023-03-15T03:05:52;3;3;3
55549;PMS7003;41397;49.972;18.944;2023-03-15T03:08:53;2;2;2
55549;PMS7003;41397;49.972;18.944;2023-03-15T03:11:55;2;2;1
55549;PMS7003;41397;49.972;18.944;2023-03-15T03:14:56;0;0;0
55549;PMS7003;41397;49.972;18.944;2023-03-15T03:17:58;8;5;1
55549;PMS7003;41397;49.972;18.944;2023-03-15T03:20:59;3;3;3
55549;PMS7003;41397;49.972;18.944;2023-03-15T03:24:03;3;3;2
55549;PMS7003;41397;49.972;18.944;2023-03-15T03:27:05;3;3;3
55549;PMS7003;41397;49.972;18.944;2023-03-15T03:30:08;3;3;2
55549;PMS7003;41397;49.972;18.944;2023-03-15T03:33:11;2;2;2
55549;PMS7003;41397;49.972;18.944;2023-03-15T03:36:13;3;3;3
55549;PMS7003;41397;49.972;18.944;2023-03-15T03:39:14;3;3;2
55549;PMS7003;41397;49.972;18.944;2023-03-15T03:42:16;5;5;2
55549;PMS7003;41397;49.972;18.944;2023-03-15T03:45:17;3;3;1
55549;PMS7003;41397;49.972;18.944;2023-03-15T03:48:19;3;3;1
55549;PMS7003;41397;49.972;18.944;2023-03-15T03:51:20;3;3;2
55549;PMS7003;41397;49.972;18.944;2023-03-15T03:54:21;4;4;2
55549;PMS7003;41397;49.972;18.944;2023-03-15T03:57:24;7;7;3
55549;PMS7003;41397;49.972;18.944;2023-03-15T04:00:25;5;5;2
55549;PMS7003;41397;49.972;18.944;2023-03-15T04:03:28;5;5;4
55549;PMS7003;41397;49.972;18.944;2023-03-15T04:06:30;6;4;2
55549;PMS7003;41397;49.972;18.944;2023-03-15T04:09:34;5;5;3
55549;PMS7003;41397;49.972;18.944;2023-03-15T04:12:37;1;1;1
55549;PMS7003;41397;49.972;18.944;2023-03-15T04:15:38;3;3;2
55549;PMS7003;41397;49.972;18.944;2023-03-15T04:18:40;3;3;2
55549;PMS7003;41397;49.972;18.944;2023-03-15T04:21:42;5;5;2
55549;PMS7003;41397;49.972;18.944;2023-03-15T04:24:46;3;3;2
55549;PMS7003;41397;49.972;18.944;2023-03-15T04:27:50;3;3;1
55549;PMS7003;41397;49.972;18.944;2023-03-15T04:31:02;7;7;6
55549;PMS7003;41397;49.972;18.944;2023-03-15T04:34:04;3;3;2
55549;PMS7003;41397;49.972;18.944;2023-03-15T04:37:05;5;5;3
55549;PMS7003;41397;49.972;18.944;2023-03-15T04:40:07;4;4;3
55549;PMS7003;41397;49.972;18.944;2023-03-15T04:43:11;5;5;4
55549;PMS7003;41397;49.972;18.944;2023-03-15T04:46:12;4;4;3
55549;PMS7003;41397;49.972;18.944;2023-03-15T04:49:14;2;2;1
55549;PMS7003;41397;49.972;18.944;2023-03-15T04:55:37;4;4;4
55549;PMS7003;41397;49.972;18.944;2023-03-15T04:58:39;4;4;3
55549;PMS7003;41397;49.972;18.944;2023-03-15T05:01:40;4;4;2
55549;PMS7003;41397;49.972;18.944;2023-03-15T05:04:42;4;4;3
55549;PMS7003;41397;49.972;18.944;2023-03-15T05:07:43;9;9;8
55549;PMS7003;41397;49.972;18.944;2023-03-15T05:10:45;8;8;6
55549;PMS7003;41397;49.972;18.944;2023-03-15T05:20:34;4;4;2
55549;PMS7003;41397;49.972;18.944;2023-03-15T05:23:35;5;5;3
55549;PMS7003;41397;49.972;18.944;2023-03-15T05:44:15;5;5;4
55549;PMS7003;41397;49.972;18.944;2023-03-15T05:47:16;3;3;2
55549;PMS7003;41397;49.972;18.944;2023-03-15T05:50:18;6;6;3
55549;PMS7003;41397;49.972;18.944;2023-03-15T05:53:20;8;8;5
55549;PMS7003;41397;49.972;18.944;2023-03-15T05:56:21;12;12;9
55549;PMS7003;41397;49.972;18.944;2023-03-15T05:59:22;6;6;4
55549;PMS7003;41397;49.972;18.944;2023-03-15T06:02:24;6;6;4
55549;PMS7003;41397;49.972;18.944;2023-03-15T06:05:25;5;5;4
55549;PMS7003;41397;49.972;18.944;2023-03-15T06:08:27;6;6;4
55549;PMS7003;41397;49.972;18.944;2023-03-15T06:11:29;1;1;1
55549;PMS7003;41397;49.972;18.944;2023-03-15T06:14:43;4;4;3
55549;PMS7003;41397;49.972;18.944;2023-03-15T06:17:45;4;4;4
55549;PMS7003;41397;49.972;18.944;2023-03-15T06:20:46;3;3;3
55549;PMS7003;41397;49.972;18.944;2023-03-15T06:23:48;10;6;4
55549;PMS7003;41397;49.972;18.944;2023-03-15T06:26:50;7;7;5
55549;PMS7003;41397;49.972;18.944;2023-03-15T06:29:55;6;6;4
55549;PMS7003;41397;49.972;18.944;2023-03-15T06:32:59;9;9;6
55549;PMS7003;41397;49.972;18.944;2023-03-15T06:36:01;4;4;4
55549;PMS7003;41397;49.972;18.944;2023-03-15T06:39:03;6;6;5
55549;PMS7003;41397;49.972;18.944;2023-03-15T06:42:05;11;11;7
55549;PMS7003;41397;49.972;18.944;2023-03-15T06:45:08;4;4;4
55549;PMS7003;41397;49.972;18.944;2023-03-15T06:48:15;3;3;3
55549;PMS7003;41397;49.972;18.944;2023-03-15T06:51:17;8;8;5
55549;PMS7003;41397;49.972;18.944;2023-03-15T06:54:18;6;6;4
55549;PMS7003;41397;49.972;18.944;2023-03-15T06:57:20;6;6;4
55549;PMS7003;41397;49.972;18.944;2023-03-15T07:00:22;4;4;4
55549;PMS7003;41397;49.972;18.944;2023-03-15T07:03:23;6;6;4
55549;PMS7003;41397;49.972;18.944;2023-03-15T07:06:25;7;7;5
55549;PMS7003;41397;49.972;18.944;2023-03-15T07:09:34;6;6;4
55549;PMS7003;41397;49.972;18.944;2023-03-15T07:13:01;10;5;3
55549;PMS7003;41397;49.972;18.944;2023-03-15T07:16:06;3;3;2
55549;PMS7003;41397;49.972;18.944;2023-03-15T07:19:07;4;4;2
55549;PMS7003;41397;49.972;18.944;2023-03-15T07:22:09;4;4;2
55549;PMS7003;41397;49.972;18.944;2023-03-15T07:25:10;4;4;2
55549;PMS7003;41397;49.972;18.944;2023-03-15T07:28:12;5;5;1
55549;PMS7003;41397;49.972;18.944;2023-03-15T07:31:15;1;1;1
55549;PMS7003;41397;49.972;18.944;2023-03-15T07:34:17;7;6;4
55549;PMS7003;41397;49.972;18.944;2023-03-15T07:37:18;4;4;2
55549;PMS7003;41397;49.972;18.944;2023-03-15T07:40:20;5;5;2
55549;PMS7003;41397;49.972;18.944;2023-03-15T07:43:21;4;4;3
55549;PMS7003;41397;49.972;18.944;2023-03-15T07:46:24;5;5;5
55549;PMS7003;41397;49.972;18.944;2023-03-15T07:49:25;3;3;2
55549;PMS7003;41397;49.972;18.944;2023-03-15T07:52:27;5;5;3
55549;PMS7003;41397;49.972;18.944;2023-03-15T07:55:28;12;9;4
55549;PMS7003;41397;49.972;18.944;2023-03-15T07:58:34;4;4;2
55549;PMS7003;41397;49.972;18.944;2023-03-15T08:01:36;2;2;1
55549;PMS7003;41397;49.972;18.944;2023-03-15T08:04:38;1;1;1
55549;PMS7003;41397;49.972;18.944;2023-03-15T08:07:39;4;4;3
55549;PMS7003;41397;49.972;18.944;2023-03-15T08:10:42;0;0;0
55549;PMS7003;41397;49.972;18.944;2023-03-15T08:13:45;2;2;2
55549;PMS7003;41397;49.972;18.944;2023-03-15T08:16:49;2;2;2
55549;PMS7003;41397;49.972;18.944;2023-03-15T08:19:51;3;3;2
55549;PMS7003;41397;49.972;18.944;2023-03-15T08:22:52;4;4;3
55549;PMS7003;41397;49.972;18.944;2023-03-15T08:25:55;2;2;1
55549;PMS7003;41397;49.972;18.944;2023-03-15T08:28:57;2;2;2
55549;PMS7003;41397;49.972;18.944;2023-03-15T08:31:59;0;0;0
55549;PMS7003;41397;49.972;18.944;2023-03-15T08:35:00;2;2;2
55549;PMS7003;41397;49.972;18.944;2023-03-15T08:38:02;5;5;3
55549;PMS7003;41397;49.972;18.944;2023-03-15T08:41:04;4;4;2
55549;PMS7003;41397;49.972;18.944;2023-03-15T08:44:06;2;2;2
55549;PMS7003;41397;49.972;18.944;2023-03-15T08:47:07;2;2;2
55549;PMS7003;41397;49.972;18.944;2023-03-15T08:50:12;1;1;0
55549;PMS7003;41397;49.972;18.944;2023-03-15T08:53:15;2;2;2
55549;PMS7003;41397;49.972;18.944;2023-03-15T08:56:17;1;1;1
55549;PMS7003;41397;49.972;18.944;2023-03-15T08:59:18;4;4;2
55549;PMS7003;41397;49.972;18.944;2023-03-15T09:02:21;4;4;2
55549;PMS7003;41397;49.972;18.944;2023-03-15T09:08:30;2;2;1
55549;PMS7003;41397;49.972;18.944;2023-03-15T09:11:34;1;1;1
55549;PMS7003;41397;49.972;18.944;2023-03-15T09:14:36;3;3;3
55549;PMS7003;41397;49.972;18.944;2023-03-15T09:17:38;2;2;2
55549;PMS7003;41397;49.972;18.944;2023-03-15T09:20:40;1;1;1
55549;PMS7003;41397;49.972;18.944;2023-03-15T09:23:42;0;0;0
55549;PMS7003;41397;49.972;18.944;2023-03-15T09:26:44;2;2;1
55549;PMS7003;41397;49.972;18.944;2023-03-15T09:29:45;0;0;0
55549;PMS7003;41397;49.972;18.944;2023-03-15T09:32:47;3;3;2
55549;PMS7003;41397;49.972;18.944;2023-03-15T09:35:51;2;2;1
55549;PMS7003;41397;49.972;18.944;2023-03-15T09:38:53;5;3;3
55549;PMS7003;41397;49.972;18.944;2023-03-15T09:41:55;4;4;1
55549;PMS7003;41397;49.972;18.944;2023-03-15T09:45:06;6;6;2
55549;PMS7003;41397;49.972;18.944;2023-03-15T09:48:18;4;4;3
55549;PMS7003;41397;49.972;18.944;2023-03-15T10:01:28;7;7;4
55549;PMS7003;41397;49.972;18.944;2023-03-15T10:04:35;3;3;2
55549;PMS7003;41397;49.972;18.944;2023-03-15T10:07:41;5;5;4
55549;PMS7003;41397;49.972;18.944;2023-03-15T10:10:48;2;2;2
55549;PMS7003;41397;49.972;18.944;2023-03-15T10:13:56;4;4;3
55549;PMS7003;41397;49.972;18.944;2023-03-15T10:20:35;3;3;3
55549;PMS7003;41397;49.972;18.944;2023-03-15T10:23:44;4;4;2
55549;PMS7003;41397;49.972;18.944;2023-03-15T10:27:06;3;3;3
55549;PMS7003;41397;49.972;18.944;2023-03-15T10:30:30;2;2;2
55549;PMS7003;41397;49.972;18.944;2023-03-15T10:33:33;3;3;3
55549;PMS7003;41397;49.972;18.944;2023-03-15T10:36:37;4;4;1
55549;PMS7003;41397;49.972;18.944;2023-03-15T10:39:53;5;5;4
55549;PMS7003;41397;49.972;18.944;2023-03-15T10:43:55;3;3;2
55549;PMS7003;41397;49.972;18.944;2023-03-15T10:46:26;2;2;2
55549;PMS7003;41397;49.972;18.944;2023-03-15T10:52:39;3;3;1
55549;PMS7003;41397;49.972;18.944;2023-03-15T10:55:44;0;0;0
55549;PMS7003;41397;49.972;18.944;2023-03-15T10:58:48;4;4;3
55549;PMS7003;41397;49.972;18.944;2023-03-15T11:02:06;1;1;0
55549;PMS7003;41397;49.972;18.944;2023-03-15T11:15:12;2;2;1
55549;PMS7003;41397;49.972;18.944;2023-03-15T11:18:16;2;2;2
55549;PMS7003;41397;49.972;18.944;2023-03-15T11:21:22;0;0;0
55549;PMS7003;41397;49.972;18.944;2023-03-15T11:24:27;5;3;2
55549;PMS7003;41397;49.972;18.944;2023-03-15T11:27:30;1;1;1
55549;PMS7003;41397;49.972;18.944;2023-03-15T11:30:31;4;4;2
55549;PMS7003;41397;49.972;18.944;2023-03-15T11:36:50;4;4;3
55549;PMS7003;41397;49.972;18.944;2023-03-15T11:40:01;0;0;0
55549;PMS7003;41397;49.972;18.944;2023-03-15T11:53:37;1;1;0
55549;PMS7003;41397;49.972;18.944;2023-03-15T12:03:29;2;2;1
55549;PMS7003;41397;49.972;18.944;2023-03-15T12:06:56;1;1;1
55549;PMS7003;41397;49.972;18.944;2023-03-15T12:13:22;3;2;2
55549;PMS7003;41397;49.972;18.944;2023-03-15T12:26:44;2;2;1
55549;PMS7003;41397;49.972;18.944;2023-03-15T12:29:57;3;3;1
55549;PMS7003;41397;49.972;18.944;2023-03-15T12:33:21;0;0;0
55549;PMS7003;41397;49.972;18.944;2023-03-15T12:53:45;3;3;3
55549;PMS7003;41397;49.972;18.944;2023-03-15T12:57:18;1;1;1
55549;PMS7003;41397;49.972;18.944;2023-03-15T13:00:51;1;1;1
55549;PMS7003;41397;49.972;18.944;2023-03-15T13:21:08;4;4;2
55549;PMS7003;41397;49.972;18.944;2023-03-15T13:24:22;2;2;2
55549;PMS7003;41397;49.972;18.944;2023-03-15T13:30:46;3;3;2
55549;PMS7003;41397;49.972;18.944;2023-03-15T13:33:54;3;3;2
55549;PMS7003;41397;49.972;18.944;2023-03-15T13:40:37;4;4;4
55549;PMS7003;41397;49.972;18.944;2023-03-15T14:05:06;7;7;5
55549;PMS7003;41397;49.972;18.944;2023-03-15T14:08:17;2;2;1
55549;PMS7003;41397;49.972;18.944;2023-03-15T14:11:33;4;4;4
55549;PMS7003;41397;49.972;18.944;2023-03-15T14:22:01;8;8;5
55549;PMS7003;41397;49.972;18.944;2023-03-15T14:28:47;5;5;5
55549;PMS7003;41397;49.972;18.944;2023-03-15T14:31:58;6;6;5
55549;PMS7003;41397;49.972;18.944;2023-03-15T14:35:06;8;8;4
55549;PMS7003;41397;49.972;18.944;2023-03-15T14:38:21;8;8;6
55549;PMS7003;41397;49.972;18.944;2023-03-15T14:41:31;6;6;3
55549;PMS7003;41397;49.972;18.944;2023-03-15T14:44:38;4;4;3
55549;PMS7003;41397;49.972;18.944;2023-03-15T14:47:41;5;5;4
55549;PMS7003;41397;49.972;18.944;2023-03-15T14:50:49;3;3;3
55549;PMS7003;41397;49.972;18.944;2023-03-15T14:53:52;10;10;6
55549;PMS7003;41397;49.972;18.944;2023-03-15T14:57:04;7;7;7
55549;PMS7003;41397;49.972;18.944;2023-03-15T15:00:07;9;9;6
55549;PMS7003;41397;49.972;18.944;2023-03-15T15:03:31;8;8;7
55549;PMS7003;41397;49.972;18.944;2023-03-15T15:10:02;3;3;2
55549;PMS7003;41397;49.972;18.944;2023-03-15T15:13:22;4;4;3
55549;PMS7003;41397;49.972;18.944;2023-03-15T15:20:07;6;6;5
55549;PMS7003;41397;49.972;18.944;2023-03-15T15:23:17;4;4;4
55549;PMS7003;41397;49.972;18.944;2023-03-15T15:29:53;5;5;3
55549;PMS7003;41397;49.972;18.944;2023-03-15T15:33:05;5;5;4
55549;PMS7003;41397;49.972;18.944;2023-03-15T15:36:11;9;9;6
55549;PMS7003;41397;49.972;18.944;2023-03-15T15:40:15;7;7;4
55549;PMS7003;41397;49.972;18.944;2023-03-15T15:43:03;4;4;3
55549;PMS7003;41397;49.972;18.944;2023-03-15T15:46:07;2;2;1
55549;PMS7003;41397;49.972;18.944;2023-03-15T15:49:33;6;4;3
55549;PMS7003;41397;49.972;18.944;2023-03-15T15:55:55;9;9;5
55549;PMS7003;41397;49.972;18.944;2023-03-15T15:58:57;8;8;6
55549;PMS7003;41397;49.972;18.944;2023-03-15T16:02:00;5;5;4
55549;PMS7003;41397;49.972;18.944;2023-03-15T16:05:02;11;11;6
55549;PMS7003;41397;49.972;18.944;2023-03-15T16:08:04;8;8;5
55549;PMS7003;41397;49.972;18.944;2023-03-15T16:11:07;7;7;6
55549;PMS7003;41397;49.972;18.944;2023-03-15T16:14:11;7;7;6
55549;PMS7003;41397;49.972;18.944;2023-03-15T16:17:16;9;9;6
55549;PMS7003;41397;49.972;18.944;2023-03-15T16:38:33;9;9;5
55549;PMS7003;41397;49.972;18.944;2023-03-15T16:49:12;22;17;11
55549;PMS7003;41397;49.972;18.944;2023-03-15T16:56:13;20;20;13
55549;PMS7003;41397;49.972;18.944;2023-03-15T16:59:19;20;20;13
55549;PMS7003;41397;49.972;18.944;2023-03-15T17:09:17;24;24;18
55549;PMS7003;41397;49.972;18.944;2023-03-15T17:12:24;22;22;17
55549;PMS7003;41397;49.972;18.944;2023-03-15T17:15:28;21;21;17
55549;PMS7003;41397;49.972;18.944;2023-03-15T17:18:34;25;19;13
55549;PMS7003;41397;49.972;18.944;2023-03-15T17:21:36;20;20;16
55549;PMS7003;41397;49.972;18.944;2023-03-15T17:24:45;21;21;16
55549;PMS7003;41397;49.972;18.944;2023-03-15T17:31:43;35;33;22
55549;PMS7003;41397;49.972;18.944;2023-03-15T17:35:01;39;31;21
55549;PMS7003;41397;49.972;18.944;2023-03-15T17:38:04;40;35;21
55549;PMS7003;41397;49.972;18.944;2023-03-15T18:05:39;47;40;27
55549;PMS7003;41397;49.972;18.944;2023-03-15T18:23:18;45;37;22
55549;PMS7003;41397;49.972;18.944;2023-03-15T18:26:49;43;38;23
55549;PMS7003;41397;49.972;18.944;2023-03-15T19:14:15;35;32;23
55549;PMS7003;41397;49.972;18.944;2023-03-15T19:21:00;41;36;24
55549;PMS7003;41397;49.972;18.944;2023-03-15T19:24:10;44;38;23
55549;PMS7003;41397;49.972;18.944;2023-03-15T19:30:52;40;36;24
55549;PMS7003;41397;49.972;18.944;2023-03-15T19:41:00;49;42;28
55549;PMS7003;41397;49.972;18.944;2023-03-15T19:44:20;49;42;25
55549;PMS7003;41397;49.972;18.944;2023-03-15T19:47:52;51;42;28
55549;PMS7003;41397;49.972;18.944;2023-03-15T19:51:13;57;47;28
55549;PMS7003;41397;49.972;18.944;2023-03-15T19:58:12;49;42;27
55549;PMS7003;41397;49.972;18.944;2023-03-15T20:01:38;55;43;27
55549;PMS7003;41397;49.972;18.944;2023-03-15T20:19:01;62;51;33
55549;PMS7003;41397;49.972;18.944;2023-03-15T20:22:10;61;49;32
55549;PMS7003;41397;49.972;18.944;2023-03-15T20:28:52;59;46;30
55549;PMS7003;41397;49.972;18.944;2023-03-15T20:32:01;63;49;32
55549;PMS7003;41397;49.972;18.944;2023-03-15T20:38:46;66;54;33
55549;PMS7003;41397;49.972;18.944;2023-03-15T20:42:06;82;69;41
55549;PMS7003;41397;49.972;18.944;2023-03-15T20:45:36;59;50;30
55549;PMS7003;41397;49.972;18.944;2023-03-15T20:52:42;68;53;33
55549;PMS7003;41397;49.972;18.944;2023-03-15T20:56:01;69;55;34
55549;PMS7003;41397;49.972;18.944;2023-03-15T20:59:29;77;66;38
55549;PMS7003;41397;49.972;18.944;2023-03-15T21:02:34;81;66;37
55549;PMS7003;41397;49.972;18.944;2023-03-15T21:06:01;77;67;34
55549;PMS7003;41397;49.972;18.944;2023-03-15T21:09:00;66;51;33
55549;PMS7003;41397;49.972;18.944;2023-03-15T21:12:02;59;49;32
55549;PMS7003;41397;49.972;18.944;2023-03-15T21:15:04;59;49;31
55549;PMS7003;41397;49.972;18.944;2023-03-15T21:18:06;54;44;28
55549;PMS7003;41397;49.972;18.944;2023-03-15T21:21:14;55;44;28
55549;PMS7003;41397;49.972;18.944;2023-03-15T21:24:32;51;42;27
55549;PMS7003;41397;49.972;18.944;2023-03-15T21:27:35;59;48;28
55549;PMS7003;41397;49.972;18.944;2023-03-15T21:30:37;56;43;28
55549;PMS7003;41397;49.972;18.944;2023-03-15T21:33:39;50;42;28
55549;PMS7003;41397;49.972;18.944;2023-03-15T21:40:11;50;43;28
55549;PMS7003;41397;49.972;18.944;2023-03-15T21:50:15;61;50;29
55549;PMS7003;41397;49.972;18.944;2023-03-15T21:53:16;65;50;32
55549;PMS7003;41397;49.972;18.944;2023-03-15T21:59:43;56;44;27
55549;PMS7003;41397;49.972;18.944;2023-03-15T22:02:47;61;48;30
55549;PMS7003;41397;49.972;18.944;2023-03-15T22:05:53;62;51;32
55549;PMS7003;41397;49.972;18.944;2023-03-15T22:08:54;70;52;32
55549;PMS7003;41397;49.972;18.944;2023-03-15T22:11:56;50;42;24
55549;PMS7003;41397;49.972;18.944;2023-03-15T22:14:57;56;42;27
55549;PMS7003;41397;49.972;18.944;2023-03-15T22:17:59;63;52;33
55549;PMS7003;41397;49.972;18.944;2023-03-15T22:21:02;63;48;29
55549;PMS7003;41397;49.972;18.944;2023-03-15T22:24:04;59;48;30
55549;PMS7003;41397;49.972;18.944;2023-03-15T22:27:06;54;45;32
55549;PMS7003;41397;49.972;18.944;2023-03-15T22:30:08;64;53;30
55549;PMS7003;41397;49.972;18.944;2023-03-15T22:33:13;59;48;31
55549;PMS7003;41397;49.972;18.944;2023-03-15T22:36:16;57;47;29
55549;PMS7003;41397;49.972;18.944;2023-03-15T22:39:17;48;41;29
55549;PMS7003;41397;49.972;18.944;2023-03-15T22:42:19;57;46;28
55549;PMS7003;41397;49.972;18.944;2023-03-15T22:45:20;55;46;29
55549;PMS7003;41397;49.972;18.944;2023-03-15T22:48:21;63;49;28
55549;PMS7003;41397;49.972;18.944;2023-03-15T22:51:23;51;43;27
55549;PMS7003;41397;49.972;18.944;2023-03-15T22:54:24;58;47;29
55549;PMS7003;41397;49.972;18.944;2023-03-15T22:57:26;44;39;26
55549;PMS7003;41397;49.972;18.944;2023-03-15T23:00:27;53;42;25
55549;PMS7003;41397;49.972;18.944;2023-03-15T23:03:29;53;40;26
55549;PMS7003;41397;49.972;18.944;2023-03-15T23:06:31;58;46;28
55549;PMS7003;41397;49.972;18.944;2023-03-15T23:09:32;45;39;23
55549;PMS7003;41397;49.972;18.944;2023-03-15T23:12:34;46;39;24
55549;PMS7003;41397;49.972;18.944;2023-03-15T23:15:36;41;35;22
55549;PMS7003;41397;49.972;18.944;2023-03-15T23:18:38;35;29;21
55549;PMS7003;41397;49.972;18.944;2023-03-15T23:21:41;38;34;23
55549;PMS7003;41397;49.972;18.944;2023-03-15T23:24:42;33;30;19
55549;PMS7003;41397;49.972;18.944;2023-03-15T23:27:47;46;38;22
55549;PMS7003;41397;49.972;18.944;2023-03-15T23:30:50;43;35;21
55549;PMS7003;41397;49.972;18.944;2023-03-15T23:33:52;34;32;22
55549;PMS7003;41397;49.972;18.944;2023-03-15T23:36:53;30;30;23
55549;PMS7003;41397;49.972;18.944;2023-03-15T23:39:54;43;37;24
55549;PMS7003;41397;49.972;18.944;2023-03-15T23:42:56;42;37;22
55549;PMS7003;41397;49.972;18.944;2023-03-15T23:46:01;47;35;23
55549;PMS7003;41397;49.972;18.944;2023-03-15T23:49:04;33;31;21
55549;PMS7003;41397;49.972;18.944;2023-03-15T23:52:06;28;26;19
55549;PMS7003;41397;49.972;18.944;2023-03-15T23:55:08;37;34;23
55549;PMS7003;41397;49.972;18.944;2023-03-15T23:58:10;39;34;21
